Rochester, NY

2:32 AM EDT on September 01, 2016 (GMT -0400)
Monroe Community College | | Change Station
Active Advisory: Beach Hazard Statement

Elev 528 ft 43.10 °N, 77.61 °W | Updated 15 minutes ago

Mostly Cloudy
Mostly Cloudy
69.5 °F
Feels Like 69.5 °F
N
3.0
Wind Variable Wind from NNE
Gusts 8.0 mph

Today
High -- | Low -- °F
--% Chance of Precip.
Yesterday
High -- | Low -- °F
Precip. -- in
Pressure 29.93 in
Visibility 10.0 miles
Clouds Scattered Clouds 4300 ft
Mostly Cloudy 6000 ft
Mostly Cloudy 9000 ft
Dew Point 60 °F
Humidity 72%
Rainfall 0.00 in
Snow Depth Not available.
6:35 AM 7:44 PM
Waning Crescent, 0% visible
METAR KROC 010554Z 04008KT 10SM SCT043 BKN060 BKN090 21/15 A2993 RMK AO2 SLP135 60001 T02060150 10233 20206 51004
Pressure 29.93 in
Visibility 10.0 miles
Clouds Scattered Clouds 4300 ft
Mostly Cloudy 6000 ft
Mostly Cloudy 9000 ft
Dew Point 60 °F
Humidity 72%
Rainfall 0.00 in
Snow Depth Not available.
6:35 AM 7:44 PM
Waning Crescent, 0% visible
METAR KROC 010554Z 04008KT 10SM SCT043 BKN060 BKN090 21/15 A2993 RMK AO2 SLP135 60001 T02060150 10233 20206 51004

10-Day Weather Forecast

Almanac

Astronomy

Sep. 01, 2016 Rise Set
Actual Time
Civil Twilight
Nautical Twilight
Astronomical Twilight
Moon
Length of Visible Light
Length of Day
Tomorrow will be .
, % of the Moon is Illuminated

Today's Extremes

State Highs State Lows

Community

WunderPhotos

Upload Photos

1,936,315 photos uploaded!

WunderBlog® & News

Nearby

Air Quality

  Air Quality AQ Index Pollutant
Not available.

Snow Depth

Station Depth Elevation

Earthquake Activity

City Distance Mag. Time & Date
Minimum magnitude displayed is 2.5.

Coastal Water Temperatures

Place Temperature

Stations

Nearby Weather Stations

Station Location Temp. Windchill Dew Point Humidity Wind Precip. Elev Updated Type
                   

Watches & Warnings

Beach Hazard Statement
Issued: 10:09 PM EDT Aug. 31, 2016 – National Weather Service

... Beach hazards statement in effect from 8 am EDT Thursday
through Thursday afternoon...

The National Weather Service in Buffalo has issued a beach
hazards statement... which is in effect from 8 am EDT Thursday
through Thursday afternoon.

* Locations... beaches of Monroe and Wayne counties.

* Timing... from early Thursday morning through early Thursday
afternoon.

* Impacts... strong currents and dangerous swimming conditions.

Precautionary/preparedness actions...

A beach hazards statement is issued when there is a high swim
risk. This means life threatening waves and currents are
expected. Stay out of the water and stay away from dangerous
areas like piers and breakwalls.